sensor_id;sensor_type;location;lat;lon;timestamp;P1;durP1;ratioP1;P2;durP2;ratioP2
13197;SDS011;6664;52.514;13.440;2022-09-12T00:01:07;2.73;;;2.20;;
13197;SDS011;6664;52.514;13.440;2022-09-12T00:03:45;2.00;;;1.90;;
13197;SDS011;6664;52.514;13.440;2022-09-12T00:06:17;1.90;;;1.80;;
13197;SDS011;6664;52.514;13.440;2022-09-12T00:08:55;1.60;;;1.50;;
13197;SDS011;6664;52.514;13.440;2022-09-12T00:11:25;2.13;;;2.03;;
13197;SDS011;6664;52.514;13.440;2022-09-12T00:13:59;2.10;;;2.00;;
13197;SDS011;6664;52.514;13.440;2022-09-12T00:16:30;2.27;;;1.90;;
13197;SDS011;6664;52.514;13.440;2022-09-12T00:18:58;2.03;;;1.93;;
13197;SDS011;6664;52.514;13.440;2022-09-12T00:21:25;2.70;;;2.10;;
13197;SDS011;6664;52.514;13.440;2022-09-12T00:23:52;3.97;;;2.00;;
13197;SDS011;6664;52.514;13.440;2022-09-12T00:26:20;3.00;;;2.40;;
13197;SDS011;6664;52.514;13.440;2022-09-12T00:28:47;2.10;;;2.00;;
13197;SDS011;6664;52.514;13.440;2022-09-12T00:31:15;1.97;;;1.87;;
13197;SDS011;6664;52.514;13.440;2022-09-12T00:33:44;2.93;;;1.80;;
13197;SDS011;6664;52.514;13.440;2022-09-12T00:36:16;2.60;;;2.30;;
13197;SDS011;6664;52.514;13.440;2022-09-12T00:38:50;2.17;;;2.07;;
13197;SDS011;6664;52.514;13.440;2022-09-12T00:41:23;2.17;;;2.07;;
13197;SDS011;6664;52.514;13.440;2022-09-12T00:43:52;1.97;;;1.87;;
13197;SDS011;6664;52.514;13.440;2022-09-12T00:46:30;1.97;;;1.87;;
13197;SDS011;6664;52.514;13.440;2022-09-12T00:49:23;3.93;;;1.90;;
13197;SDS011;6664;52.514;13.440;2022-09-12T00:51:56;1.97;;;1.87;;
13197;SDS011;6664;52.514;13.440;2022-09-12T00:54:49;2.13;;;2.00;;
13197;SDS011;6664;52.514;13.440;2022-09-12T00:57:31;2.00;;;1.80;;
13197;SDS011;6664;52.514;13.440;2022-09-12T01:00:13;9.90;;;1.90;;
13197;SDS011;6664;52.514;13.440;2022-09-12T01:02:43;1.80;;;1.70;;
13197;SDS011;6664;52.514;13.440;2022-09-12T01:05:15;3.43;;;2.30;;
13197;SDS011;6664;52.514;13.440;2022-09-12T01:07:42;2.10;;;1.83;;
13197;SDS011;6664;52.514;13.440;2022-09-12T01:10:13;1.90;;;1.80;;
13197;SDS011;6664;52.514;13.440;2022-09-12T01:12:41;2.70;;;1.90;;
13197;SDS011;6664;52.514;13.440;2022-09-12T01:15:09;2.00;;;1.90;;
13197;SDS011;6664;52.514;13.440;2022-09-12T01:26:08;2.50;;;2.30;;
13197;SDS011;6664;52.514;13.440;2022-09-12T01:48:45;3.63;;;2.80;;
13197;SDS011;6664;52.514;13.440;2022-09-12T01:54:34;2.80;;;2.60;;
13197;SDS011;6664;52.514;13.440;2022-09-12T01:57:11;4.90;;;2.70;;
13197;SDS011;6664;52.514;13.440;2022-09-12T01:59:46;3.20;;;3.00;;
13197;SDS011;6664;52.514;13.440;2022-09-12T02:05:20;4.27;;;2.87;;
13197;SDS011;6664;52.514;13.440;2022-09-12T02:07:56;2.60;;;2.40;;
13197;SDS011;6664;52.514;13.440;2022-09-12T02:11:03;3.47;;;3.17;;
13197;SDS011;6664;52.514;13.440;2022-09-12T02:13:45;3.40;;;2.90;;
13197;SDS011;6664;52.514;13.440;2022-09-12T02:16:21;3.17;;;2.87;;
13197;SDS011;6664;52.514;13.440;2022-09-12T02:18:56;2.70;;;2.50;;
13197;SDS011;6664;52.514;13.440;2022-09-12T02:21:34;4.20;;;2.63;;
13197;SDS011;6664;52.514;13.440;2022-09-12T02:24:05;6.77;;;3.00;;
13197;SDS011;6664;52.514;13.440;2022-09-12T02:26:46;2.40;;;2.20;;
13197;SDS011;6664;52.514;13.440;2022-09-12T02:29:17;2.73;;;2.53;;
13197;SDS011;6664;52.514;13.440;2022-09-12T02:31:45;3.83;;;3.53;;
13197;SDS011;6664;52.514;13.440;2022-09-12T02:39:32;4.00;;;2.93;;
13197;SDS011;6664;52.514;13.440;2022-09-12T02:42:00;3.93;;;3.00;;
13197;SDS011;6664;52.514;13.440;2022-09-12T02:44:31;3.93;;;3.53;;
13197;SDS011;6664;52.514;13.440;2022-09-12T02:47:04;3.70;;;3.20;;
13197;SDS011;6664;52.514;13.440;2022-09-12T02:49:37;3.40;;;3.07;;
13197;SDS011;6664;52.514;13.440;2022-09-12T02:52:04;3.53;;;2.70;;
13197;SDS011;6664;52.514;13.440;2022-09-12T02:54:31;4.40;;;3.30;;
13197;SDS011;6664;52.514;13.440;2022-09-12T02:56:58;3.60;;;3.30;;
13197;SDS011;6664;52.514;13.440;2022-09-12T02:59:25;4.07;;;3.73;;
13197;SDS011;6664;52.514;13.440;2022-09-12T03:13:30;3.50;;;3.20;;
13197;SDS011;6664;52.514;13.440;2022-09-12T03:21:34;3.77;;;3.43;;
13197;SDS011;6664;52.514;13.440;2022-09-12T03:24:15;3.67;;;3.13;;
13197;SDS011;6664;52.514;13.440;2022-09-12T03:26:53;3.13;;;2.90;;
13197;SDS011;6664;52.514;13.440;2022-09-12T03:29:24;3.77;;;3.47;;
13197;SDS011;6664;52.514;13.440;2022-09-12T03:31:53;4.07;;;3.70;;
13197;SDS011;6664;52.514;13.440;2022-09-12T03:34:25;7.43;;;3.87;;
13197;SDS011;6664;52.514;13.440;2022-09-12T03:36:53;3.93;;;3.43;;
13197;SDS011;6664;52.514;13.440;2022-09-12T03:39:23;4.03;;;3.30;;
13197;SDS011;6664;52.514;13.440;2022-09-12T03:41:51;4.33;;;3.93;;
13197;SDS011;6664;52.514;13.440;2022-09-12T03:44:20;4.90;;;3.20;;
13197;SDS011;6664;52.514;13.440;2022-09-12T03:46:46;3.90;;;3.50;;
13197;SDS011;6664;52.514;13.440;2022-09-12T03:49:16;8.43;;;4.80;;
13197;SDS011;6664;52.514;13.440;2022-09-12T03:51:45;4.30;;;3.50;;
13197;SDS011;6664;52.514;13.440;2022-09-12T03:54:14;3.57;;;3.27;;
13197;SDS011;6664;52.514;13.440;2022-09-12T03:56:41;4.03;;;3.57;;
13197;SDS011;6664;52.514;13.440;2022-09-12T03:59:08;3.70;;;3.03;;
13197;SDS011;6664;52.514;13.440;2022-09-12T04:01:37;4.90;;;3.70;;
13197;SDS011;6664;52.514;13.440;2022-09-12T04:04:04;3.63;;;3.33;;
13197;SDS011;6664;52.514;13.440;2022-09-12T04:06:31;8.17;;;4.20;;
13197;SDS011;6664;52.514;13.440;2022-09-12T04:08:57;6.63;;;4.47;;
13197;SDS011;6664;52.514;13.440;2022-09-12T04:11:25;4.20;;;3.70;;
13197;SDS011;6664;52.514;13.440;2022-09-12T04:13:54;5.43;;;3.70;;
13197;SDS011;6664;52.514;13.440;2022-09-12T04:16:21;4.50;;;3.77;;
13197;SDS011;6664;52.514;13.440;2022-09-12T04:18:47;4.90;;;4.00;;
13197;SDS011;6664;52.514;13.440;2022-09-12T04:21:16;5.03;;;4.53;;
13197;SDS011;6664;52.514;13.440;2022-09-12T04:23:47;5.57;;;4.03;;
13197;SDS011;6664;52.514;13.440;2022-09-12T04:26:17;6.63;;;4.30;;
13197;SDS011;6664;52.514;13.440;2022-09-12T04:28:44;6.30;;;4.20;;
13197;SDS011;6664;52.514;13.440;2022-09-12T04:31:16;5.30;;;4.10;;
13197;SDS011;6664;52.514;13.440;2022-09-12T04:33:45;5.33;;;4.83;;
13197;SDS011;6664;52.514;13.440;2022-09-12T04:36:15;7.23;;;4.27;;
13197;SDS011;6664;52.514;13.440;2022-09-12T04:38:43;5.63;;;4.73;;
13197;SDS011;6664;52.514;13.440;2022-09-12T04:41:15;6.13;;;4.30;;
13197;SDS011;6664;52.514;13.440;2022-09-12T04:43:56;9.77;;;5.00;;
13197;SDS011;6664;52.514;13.440;2022-09-12T04:46:24;6.20;;;4.63;;
13197;SDS011;6664;52.514;13.440;2022-09-12T04:48:51;9.73;;;4.90;;
13197;SDS011;6664;52.514;13.440;2022-09-12T04:51:26;7.77;;;4.67;;
13197;SDS011;6664;52.514;13.440;2022-09-12T04:53:58;8.00;;;4.90;;
13197;SDS011;6664;52.514;13.440;2022-09-12T04:56:29;4.37;;;3.77;;
13197;SDS011;6664;52.514;13.440;2022-09-12T04:58:57;4.90;;;4.40;;
13197;SDS011;6664;52.514;13.440;2022-09-12T05:01:26;5.47;;;4.07;;
13197;SDS011;6664;52.514;13.440;2022-09-12T05:03:55;7.43;;;5.10;;
13197;SDS011;6664;52.514;13.440;2022-09-12T05:06:25;5.20;;;4.07;;
13197;SDS011;6664;52.514;13.440;2022-09-12T05:09:02;4.90;;;4.40;;
13197;SDS011;6664;52.514;13.440;2022-09-12T05:11:32;7.60;;;4.37;;
13197;SDS011;6664;52.514;13.440;2022-09-12T05:14:23;6.93;;;4.40;;
13197;SDS011;6664;52.514;13.440;2022-09-12T05:16:50;12.80;;;4.90;;
13197;SDS011;6664;52.514;13.440;2022-09-12T05:19:16;5.67;;;4.43;;
13197;SDS011;6664;52.514;13.440;2022-09-12T05:21:45;7.30;;;4.30;;
13197;SDS011;6664;52.514;13.440;2022-09-12T05:24:12;7.00;;;4.70;;
13197;SDS011;6664;52.514;13.440;2022-09-12T05:26:42;7.50;;;5.03;;
13197;SDS011;6664;52.514;13.440;2022-09-12T05:29:09;9.77;;;5.20;;
13197;SDS011;6664;52.514;13.440;2022-09-12T05:31:35;4.43;;;4.03;;
13197;SDS011;6664;52.514;13.440;2022-09-12T05:34:02;9.50;;;4.83;;
13197;SDS011;6664;52.514;13.440;2022-09-12T05:36:35;6.23;;;5.43;;
13197;SDS011;6664;52.514;13.440;2022-09-12T05:39:02;7.43;;;5.53;;
13197;SDS011;6664;52.514;13.440;2022-09-12T05:41:30;6.70;;;4.60;;
13197;SDS011;6664;52.514;13.440;2022-09-12T05:43:59;6.63;;;5.23;;
13197;SDS011;6664;52.514;13.440;2022-09-12T05:46:29;7.47;;;4.40;;
13197;SDS011;6664;52.514;13.440;2022-09-12T05:49:01;8.53;;;5.60;;
13197;SDS011;6664;52.514;13.440;2022-09-12T05:51:37;5.60;;;4.77;;
13197;SDS011;6664;52.514;13.440;2022-09-12T05:54:06;7.13;;;4.97;;
13197;SDS011;6664;52.514;13.440;2022-09-12T05:56:39;11.63;;;4.93;;
13197;SDS011;6664;52.514;13.440;2022-09-12T05:59:11;7.63;;;5.43;;
13197;SDS011;6664;52.514;13.440;2022-09-12T06:01:43;6.03;;;5.10;;
13197;SDS011;6664;52.514;13.440;2022-09-12T06:04:10;6.80;;;4.67;;
13197;SDS011;6664;52.514;13.440;2022-09-12T06:06:40;9.17;;;5.40;;
13197;SDS011;6664;52.514;13.440;2022-09-12T06:09:14;6.20;;;4.70;;
13197;SDS011;6664;52.514;13.440;2022-09-12T06:11:45;6.50;;;5.20;;
13197;SDS011;6664;52.514;13.440;2022-09-12T06:14:14;7.97;;;5.33;;
13197;SDS011;6664;52.514;13.440;2022-09-12T06:16:41;10.90;;;6.27;;
13197;SDS011;6664;52.514;13.440;2022-09-12T06:19:13;7.33;;;5.33;;
13197;SDS011;6664;52.514;13.440;2022-09-12T06:21:47;7.63;;;5.40;;
13197;SDS011;6664;52.514;13.440;2022-09-12T06:24:15;7.30;;;4.63;;
13197;SDS011;6664;52.514;13.440;2022-09-12T06:26:43;6.70;;;4.97;;
13197;SDS011;6664;52.514;13.440;2022-09-12T06:29:10;6.33;;;4.90;;
13197;SDS011;6664;52.514;13.440;2022-09-12T06:31:41;6.57;;;5.00;;
13197;SDS011;6664;52.514;13.440;2022-09-12T06:34:09;7.30;;;5.30;;
13197;SDS011;6664;52.514;13.440;2022-09-12T06:36:42;8.63;;;5.20;;
13197;SDS011;6664;52.514;13.440;2022-09-12T06:39:14;8.80;;;5.60;;
13197;SDS011;6664;52.514;13.440;2022-09-12T06:41:48;8.20;;;5.90;;
13197;SDS011;6664;52.514;13.440;2022-09-12T06:44:17;8.43;;;6.00;;
13197;SDS011;6664;52.514;13.440;2022-09-12T06:46:45;7.80;;;6.57;;
13197;SDS011;6664;52.514;13.440;2022-09-12T06:49:12;8.33;;;6.10;;
13197;SDS011;6664;52.514;13.440;2022-09-12T06:51:40;8.20;;;5.53;;
13197;SDS011;6664;52.514;13.440;2022-09-12T06:54:07;10.43;;;5.50;;
13197;SDS011;6664;52.514;13.440;2022-09-12T06:56:37;8.33;;;6.80;;
13197;SDS011;6664;52.514;13.440;2022-09-12T06:59:04;6.77;;;5.83;;
13197;SDS011;6664;52.514;13.440;2022-09-12T07:01:34;8.33;;;6.40;;
13197;SDS011;6664;52.514;13.440;2022-09-12T07:04:01;9.97;;;6.47;;
13197;SDS011;6664;52.514;13.440;2022-09-12T07:06:30;10.47;;;6.77;;
13197;SDS011;6664;52.514;13.440;2022-09-12T07:09:03;8.30;;;6.20;;
13197;SDS011;6664;52.514;13.440;2022-09-12T07:11:34;8.63;;;6.73;;
13197;SDS011;6664;52.514;13.440;2022-09-12T07:14:05;11.70;;;6.10;;
13197;SDS011;6664;52.514;13.440;2022-09-12T07:16:34;8.50;;;5.77;;
13197;SDS011;6664;52.514;13.440;2022-09-12T07:19:02;6.40;;;5.47;;
13197;SDS011;6664;52.514;13.440;2022-09-12T07:21:30;8.73;;;5.23;;
13197;SDS011;6664;52.514;13.440;2022-09-12T07:23:58;7.60;;;5.93;;
13197;SDS011;6664;52.514;13.440;2022-09-12T07:26:25;6.73;;;5.77;;
13197;SDS011;6664;52.514;13.440;2022-09-12T07:28:54;8.17;;;5.90;;
13197;SDS011;6664;52.514;13.440;2022-09-12T07:31:45;6.10;;;5.50;;
13197;SDS011;6664;52.514;13.440;2022-09-12T07:34:12;6.80;;;5.30;;
13197;SDS011;6664;52.514;13.440;2022-09-12T07:36:39;8.23;;;5.80;;
13197;SDS011;6664;52.514;13.440;2022-09-12T07:39:06;6.37;;;5.00;;
13197;SDS011;6664;52.514;13.440;2022-09-12T07:41:33;7.13;;;5.57;;
13197;SDS011;6664;52.514;13.440;2022-09-12T07:44:00;6.13;;;5.23;;
13197;SDS011;6664;52.514;13.440;2022-09-12T07:46:28;6.03;;;5.07;;
13197;SDS011;6664;52.514;13.440;2022-09-12T07:48:57;7.07;;;4.63;;
13197;SDS011;6664;52.514;13.440;2022-09-12T07:51:25;6.13;;;5.53;;
13197;SDS011;6664;52.514;13.440;2022-09-12T07:53:55;6.90;;;5.20;;
13197;SDS011;6664;52.514;13.440;2022-09-12T07:56:25;4.43;;;3.77;;
13197;SDS011;6664;52.514;13.440;2022-09-12T07:58:59;3.47;;;3.03;;
13197;SDS011;6664;52.514;13.440;2022-09-12T08:01:26;4.07;;;3.70;;
13197;SDS011;6664;52.514;13.440;2022-09-12T08:03:54;5.70;;;3.87;;
13197;SDS011;6664;52.514;13.440;2022-09-12T08:06:22;3.40;;;2.97;;
13197;SDS011;6664;52.514;13.440;2022-09-12T08:08:54;5.97;;;4.07;;
13197;SDS011;6664;52.514;13.440;2022-09-12T08:11:22;5.53;;;4.00;;
13197;SDS011;6664;52.514;13.440;2022-09-12T08:13:51;5.30;;;4.10;;
13197;SDS011;6664;52.514;13.440;2022-09-12T08:16:25;5.37;;;3.30;;
13197;SDS011;6664;52.514;13.440;2022-09-12T08:18:54;4.60;;;4.20;;
13197;SDS011;6664;52.514;13.440;2022-09-12T08:21:22;4.53;;;2.90;;
13197;SDS011;6664;52.514;13.440;2022-09-12T08:23:52;4.40;;;3.20;;
13197;SDS011;6664;52.514;13.440;2022-09-12T08:26:21;4.27;;;3.00;;
13197;SDS011;6664;52.514;13.440;2022-09-12T08:28:48;4.80;;;2.37;;
13197;SDS011;6664;52.514;13.440;2022-09-12T08:31:16;7.20;;;2.73;;
13197;SDS011;6664;52.514;13.440;2022-09-12T08:33:45;2.60;;;2.40;;
13197;SDS011;6664;52.514;13.440;2022-09-12T08:36:18;3.00;;;2.23;;
13197;SDS011;6664;52.514;13.440;2022-09-12T08:38:50;3.83;;;2.60;;
13197;SDS011;6664;52.514;13.440;2022-09-12T08:46:50;2.47;;;2.20;;
13197;SDS011;6664;52.514;13.440;2022-09-12T08:49:42;2.00;;;1.90;;
13197;SDS011;6664;52.514;13.440;2022-09-12T08:52:36;3.00;;;2.17;;
13197;SDS011;6664;52.514;13.440;2022-09-12T08:57:56;1.50;;;1.40;;
13197;SDS011;6664;52.514;13.440;2022-09-12T09:12:19;1.63;;;1.40;;
13197;SDS011;6664;52.514;13.440;2022-09-12T09:18:37;1.40;;;1.30;;
13197;SDS011;6664;52.514;13.440;2022-09-12T09:21:19;1.30;;;1.20;;
13197;SDS011;6664;52.514;13.440;2022-09-12T09:23:57;5.90;;;1.87;;
13197;SDS011;6664;52.514;13.440;2022-09-12T09:29:09;3.43;;;1.20;;
13197;SDS011;6664;52.514;13.440;2022-09-12T09:31:40;1.00;;;1.00;;
13197;SDS011;6664;52.514;13.440;2022-09-12T09:34:14;1.33;;;1.23;;
13197;SDS011;6664;52.514;13.440;2022-09-12T09:36:59;1.43;;;1.33;;
13197;SDS011;6664;52.514;13.440;2022-09-12T09:44:55;1.17;;;1.07;;
13197;SDS011;6664;52.514;13.440;2022-09-12T09:47:25;2.87;;;0.97;;
13197;SDS011;6664;52.514;13.440;2022-09-12T09:49:52;1.20;;;1.10;;
13197;SDS011;6664;52.514;13.440;2022-09-12T09:52:25;0.90;;;0.90;;
13197;SDS011;6664;52.514;13.440;2022-09-12T09:54:59;2.10;;;1.10;;
13197;SDS011;6664;52.514;13.440;2022-09-12T10:03:21;0.93;;;0.93;;
13197;SDS011;6664;52.514;13.440;2022-09-12T10:06:20;1.07;;;0.97;;
13197;SDS011;6664;52.514;13.440;2022-09-12T10:08:50;1.30;;;1.17;;
13197;SDS011;6664;52.514;13.440;2022-09-12T10:11:45;1.20;;;0.97;;
13197;SDS011;6664;52.514;13.440;2022-09-12T10:16:54;0.90;;;0.90;;
13197;SDS011;6664;52.514;13.440;2022-09-12T10:19:23;0.90;;;0.90;;
13197;SDS011;6664;52.514;13.440;2022-09-12T10:22:03;1.47;;;0.90;;
13197;SDS011;6664;52.514;13.440;2022-09-12T10:24:35;1.70;;;1.00;;
13197;SDS011;6664;52.514;13.440;2022-09-12T10:27:17;1.30;;;1.20;;
13197;SDS011;6664;52.514;13.440;2022-09-12T10:32:36;0.80;;;0.80;;
13197;SDS011;6664;52.514;13.440;2022-09-12T10:35:20;1.70;;;1.60;;
13197;SDS011;6664;52.514;13.440;2022-09-12T10:37:54;9.53;;;1.43;;
13197;SDS011;6664;52.514;13.440;2022-09-12T10:40:29;0.93;;;0.83;;
13197;SDS011;6664;52.514;13.440;2022-09-12T10:43:01;1.20;;;1.00;;
13197;SDS011;6664;52.514;13.440;2022-09-12T10:45:42;1.17;;;1.17;;
13197;SDS011;6664;52.514;13.440;2022-09-12T10:48:29;1.07;;;0.90;;
13197;SDS011;6664;52.514;13.440;2022-09-12T10:51:00;4.40;;;0.93;;
13197;SDS011;6664;52.514;13.440;2022-09-12T10:53:28;1.33;;;1.00;;
13197;SDS011;6664;52.514;13.440;2022-09-12T10:56:07;0.90;;;0.90;;
13197;SDS011;6664;52.514;13.440;2022-09-12T10:58:44;1.10;;;1.00;;
13197;SDS011;6664;52.514;13.440;2022-09-12T11:06:44;1.37;;;1.20;;
13197;SDS011;6664;52.514;13.440;2022-09-12T11:12:30;1.47;;;1.00;;
13197;SDS011;6664;52.514;13.440;2022-09-12T11:15:15;1.37;;;1.27;;
13197;SDS011;6664;52.514;13.440;2022-09-12T11:26:50;2.77;;;1.53;;
13197;SDS011;6664;52.514;13.440;2022-09-12T11:46:15;0.90;;;0.90;;
13197;SDS011;6664;52.514;13.440;2022-09-12T11:51:34;1.20;;;1.00;;
13197;SDS011;6664;52.514;13.440;2022-09-12T11:54:13;2.40;;;1.00;;
13197;SDS011;6664;52.514;13.440;2022-09-12T11:56:48;0.83;;;0.83;;
13197;SDS011;6664;52.514;13.440;2022-09-12T11:59:41;0.93;;;0.90;;
13197;SDS011;6664;52.514;13.440;2022-09-12T12:02:35;0.83;;;0.83;;
13197;SDS011;6664;52.514;13.440;2022-09-12T12:05:21;0.90;;;0.90;;
13197;SDS011;6664;52.514;13.440;2022-09-12T12:07:59;1.43;;;0.97;;
13197;SDS011;6664;52.514;13.440;2022-09-12T12:10:37;0.80;;;0.80;;
13197;SDS011;6664;52.514;13.440;2022-09-12T12:13:26;0.77;;;0.77;;
13197;SDS011;6664;52.514;13.440;2022-09-12T12:18:30;1.00;;;0.90;;
13197;SDS011;6664;52.514;13.440;2022-09-12T12:24:02;0.80;;;0.80;;
13197;SDS011;6664;52.514;13.440;2022-09-12T12:29:12;1.10;;;1.00;;
13197;SDS011;6664;52.514;13.440;2022-09-12T12:34:43;4.33;;;1.30;;
13197;SDS011;6664;52.514;13.440;2022-09-12T12:45:02;2.40;;;1.47;;
13197;SDS011;6664;52.514;13.440;2022-09-12T12:48:00;3.53;;;1.10;;
13197;SDS011;6664;52.514;13.440;2022-09-12T12:50:36;0.80;;;0.80;;
13197;SDS011;6664;52.514;13.440;2022-09-12T12:53:06;2.13;;;1.00;;
13197;SDS011;6664;52.514;13.440;2022-09-12T12:55:51;7.03;;;1.00;;
13197;SDS011;6664;52.514;13.440;2022-09-12T12:58:35;8.10;;;1.00;;
13197;SDS011;6664;52.514;13.440;2022-09-12T13:03:40;0.70;;;0.70;;
13197;SDS011;6664;52.514;13.440;2022-09-12T13:06:24;0.73;;;0.73;;
13197;SDS011;6664;52.514;13.440;2022-09-12T13:09:06;1.67;;;0.60;;
13197;SDS011;6664;52.514;13.440;2022-09-12T13:11:41;2.20;;;1.17;;
13197;SDS011;6664;52.514;13.440;2022-09-12T13:16:59;0.90;;;0.80;;
13197;SDS011;6664;52.514;13.440;2022-09-12T13:19:32;0.80;;;0.80;;
13197;SDS011;6664;52.514;13.440;2022-09-12T13:22:05;0.87;;;0.70;;
13197;SDS011;6664;52.514;13.440;2022-09-12T13:24:42;0.70;;;0.70;;
13197;SDS011;6664;52.514;13.440;2022-09-12T13:27:17;1.07;;;0.70;;
13197;SDS011;6664;52.514;13.440;2022-09-12T13:29:44;1.50;;;1.40;;
13197;SDS011;6664;52.514;13.440;2022-09-12T13:32:11;0.90;;;0.80;;
13197;SDS011;6664;52.514;13.440;2022-09-12T13:35:24;0.90;;;0.90;;
13197;SDS011;6664;52.514;13.440;2022-09-12T13:43:07;2.30;;;0.90;;
13197;SDS011;6664;52.514;13.440;2022-09-12T13:45:35;0.63;;;0.63;;
13197;SDS011;6664;52.514;13.440;2022-09-12T13:48:05;1.73;;;1.00;;
13197;SDS011;6664;52.514;13.440;2022-09-12T13:50:40;0.80;;;0.80;;
13197;SDS011;6664;52.514;13.440;2022-09-12T13:53:14;1.13;;;1.03;;
13197;SDS011;6664;52.514;13.440;2022-09-12T13:55:47;1.20;;;1.00;;
13197;SDS011;6664;52.514;13.440;2022-09-12T13:58:25;1.10;;;1.00;;
13197;SDS011;6664;52.514;13.440;2022-09-12T14:03:31;1.50;;;0.83;;
13197;SDS011;6664;52.514;13.440;2022-09-12T14:06:25;1.40;;;1.03;;
13197;SDS011;6664;52.514;13.440;2022-09-12T14:08:53;1.20;;;0.90;;
13197;SDS011;6664;52.514;13.440;2022-09-12T14:11:27;1.20;;;1.10;;
13197;SDS011;6664;52.514;13.440;2022-09-12T14:13:55;1.10;;;1.00;;
13197;SDS011;6664;52.514;13.440;2022-09-12T14:16:23;1.57;;;0.80;;
13197;SDS011;6664;52.514;13.440;2022-09-12T14:18:54;1.50;;;0.83;;
13197;SDS011;6664;52.514;13.440;2022-09-12T14:21:32;0.77;;;0.77;;
13197;SDS011;6664;52.514;13.440;2022-09-12T14:24:05;0.73;;;0.73;;
13197;SDS011;6664;52.514;13.440;2022-09-12T14:26:36;0.90;;;0.90;;
13197;SDS011;6664;52.514;13.440;2022-09-12T14:29:05;1.77;;;1.20;;
13197;SDS011;6664;52.514;13.440;2022-09-12T14:31:34;0.80;;;0.80;;
13197;SDS011;6664;52.514;13.440;2022-09-12T14:34:13;1.20;;;1.10;;
13197;SDS011;6664;52.514;13.440;2022-09-12T14:36:43;0.80;;;0.80;;
13197;SDS011;6664;52.514;13.440;2022-09-12T14:41:42;1.10;;;1.00;;
13197;SDS011;6664;52.514;13.440;2022-09-12T14:44:49;1.80;;;1.03;;
13197;SDS011;6664;52.514;13.440;2022-09-12T14:47:17;4.90;;;1.40;;
13197;SDS011;6664;52.514;13.440;2022-09-12T14:49:47;3.47;;;1.67;;
13197;SDS011;6664;52.514;13.440;2022-09-12T14:54:58;1.43;;;1.00;;
13197;SDS011;6664;52.514;13.440;2022-09-12T14:57:41;1.03;;;1.00;;
13197;SDS011;6664;52.514;13.440;2022-09-12T15:02:36;1.50;;;1.37;;
13197;SDS011;6664;52.514;13.440;2022-09-12T15:07:39;2.60;;;1.03;;
13197;SDS011;6664;52.514;13.440;2022-09-12T15:10:33;1.40;;;1.10;;
13197;SDS011;6664;52.514;13.440;2022-09-12T15:15:40;1.67;;;1.17;;
13197;SDS011;6664;52.514;13.440;2022-09-12T15:18:11;1.03;;;1.00;;
13197;SDS011;6664;52.514;13.440;2022-09-12T15:20:39;2.43;;;1.00;;
13197;SDS011;6664;52.514;13.440;2022-09-12T15:23:13;4.73;;;0.90;;
13197;SDS011;6664;52.514;13.440;2022-09-12T15:25:44;1.17;;;1.07;;
13197;SDS011;6664;52.514;13.440;2022-09-12T15:28:14;1.40;;;1.10;;
13197;SDS011;6664;52.514;13.440;2022-09-12T15:30:48;4.83;;;1.20;;
13197;SDS011;6664;52.514;13.440;2022-09-12T15:33:17;1.37;;;1.27;;
13197;SDS011;6664;52.514;13.440;2022-09-12T15:35:46;2.90;;;1.70;;
13197;SDS011;6664;52.514;13.440;2022-09-12T15:38:13;1.37;;;1.10;;
13197;SDS011;6664;52.514;13.440;2022-09-12T15:40:40;1.73;;;0.87;;
13197;SDS011;6664;52.514;13.440;2022-09-12T15:43:09;2.03;;;1.00;;
13197;SDS011;6664;52.514;13.440;2022-09-12T15:45:41;2.30;;;1.30;;
13197;SDS011;6664;52.514;13.440;2022-09-12T15:48:09;1.07;;;1.00;;
13197;SDS011;6664;52.514;13.440;2022-09-12T15:50:36;1.40;;;1.30;;
13197;SDS011;6664;52.514;13.440;2022-09-12T15:53:03;1.20;;;1.10;;
13197;SDS011;6664;52.514;13.440;2022-09-12T15:55:30;1.37;;;1.03;;
13197;SDS011;6664;52.514;13.440;2022-09-12T15:57:57;0.97;;;0.97;;
13197;SDS011;6664;52.514;13.440;2022-09-12T16:00:31;1.20;;;1.03;;
13197;SDS011;6664;52.514;13.440;2022-09-12T16:02:58;1.50;;;1.40;;
13197;SDS011;6664;52.514;13.440;2022-09-12T16:05:27;1.23;;;1.13;;
13197;SDS011;6664;52.514;13.440;2022-09-12T16:07:59;1.73;;;1.30;;
13197;SDS011;6664;52.514;13.440;2022-09-12T16:10:27;1.03;;;0.90;;
13197;SDS011;6664;52.514;13.440;2022-09-12T16:12:55;0.73;;;0.73;;
13197;SDS011;6664;52.514;13.440;2022-09-12T16:15:25;1.33;;;0.97;;
13197;SDS011;6664;52.514;13.440;2022-09-12T16:17:54;1.73;;;1.20;;
13197;SDS011;6664;52.514;13.440;2022-09-12T16:20:21;1.47;;;1.10;;
13197;SDS011;6664;52.514;13.440;2022-09-12T16:22:49;1.00;;;0.90;;
13197;SDS011;6664;52.514;13.440;2022-09-12T16:25:16;0.80;;;0.80;;
13197;SDS011;6664;52.514;13.440;2022-09-12T16:27:43;1.10;;;1.10;;
13197;SDS011;6664;52.514;13.440;2022-09-12T16:30:12;1.47;;;1.13;;
13197;SDS011;6664;52.514;13.440;2022-09-12T16:32:39;0.90;;;0.80;;
13197;SDS011;6664;52.514;13.440;2022-09-12T16:35:08;1.10;;;1.07;;
13197;SDS011;6664;52.514;13.440;2022-09-12T16:37:35;1.83;;;0.93;;
13197;SDS011;6664;52.514;13.440;2022-09-12T16:40:05;0.80;;;0.80;;
13197;SDS011;6664;52.514;13.440;2022-09-12T16:42:34;1.10;;;1.10;;
13197;SDS011;6664;52.514;13.440;2022-09-12T16:45:05;1.37;;;1.27;;
13197;SDS011;6664;52.514;13.440;2022-09-12T16:47:33;0.93;;;0.90;;
13197;SDS011;6664;52.514;13.440;2022-09-12T16:49:59;1.10;;;1.00;;
13197;SDS011;6664;52.514;13.440;2022-09-12T16:52:26;1.17;;;1.10;;
13197;SDS011;6664;52.514;13.440;2022-09-12T16:54:53;1.53;;;1.10;;
13197;SDS011;6664;52.514;13.440;2022-09-12T16:57:22;1.00;;;1.00;;
13197;SDS011;6664;52.514;13.440;2022-09-12T16:59:52;1.53;;;0.90;;
13197;SDS011;6664;52.514;13.440;2022-09-12T17:02:21;1.27;;;1.17;;
13197;SDS011;6664;52.514;13.440;2022-09-12T17:04:52;1.50;;;1.40;;
13197;SDS011;6664;52.514;13.440;2022-09-12T17:07:21;3.13;;;1.20;;
13197;SDS011;6664;52.514;13.440;2022-09-12T17:09:53;0.90;;;0.90;;
13197;SDS011;6664;52.514;13.440;2022-09-12T17:12:22;2.70;;;1.60;;
13197;SDS011;6664;52.514;13.440;2022-09-12T17:14:49;6.37;;;1.27;;
13197;SDS011;6664;52.514;13.440;2022-09-12T17:17:16;1.40;;;1.30;;
13197;SDS011;6664;52.514;13.440;2022-09-12T17:19:43;1.60;;;1.20;;
13197;SDS011;6664;52.514;13.440;2022-09-12T17:22:12;4.07;;;1.30;;
13197;SDS011;6664;52.514;13.440;2022-09-12T17:24:41;1.47;;;1.37;;
13197;SDS011;6664;52.514;13.440;2022-09-12T17:27:10;1.97;;;1.43;;
13197;SDS011;6664;52.514;13.440;2022-09-12T17:29:37;1.60;;;1.50;;
13197;SDS011;6664;52.514;13.440;2022-09-12T17:32:04;5.23;;;2.10;;
13197;SDS011;6664;52.514;13.440;2022-09-12T17:34:31;1.50;;;1.40;;
13197;SDS011;6664;52.514;13.440;2022-09-12T17:37:00;2.80;;;1.70;;
13197;SDS011;6664;52.514;13.440;2022-09-12T17:39:29;1.57;;;1.47;;
13197;SDS011;6664;52.514;13.440;2022-09-12T17:41:58;3.17;;;1.33;;
13197;SDS011;6664;52.514;13.440;2022-09-12T17:44:26;2.20;;;2.00;;
13197;SDS011;6664;52.514;13.440;2022-09-12T17:46:55;2.50;;;2.17;;
13197;SDS011;6664;52.514;13.440;2022-09-12T17:49:24;1.77;;;1.67;;
13197;SDS011;6664;52.514;13.440;2022-09-12T17:51:53;2.97;;;2.20;;
13197;SDS011;6664;52.514;13.440;2022-09-12T17:54:21;2.63;;;1.90;;
13197;SDS011;6664;52.514;13.440;2022-09-12T17:56:52;2.67;;;1.70;;
13197;SDS011;6664;52.514;13.440;2022-09-12T17:59:21;2.73;;;2.33;;
13197;SDS011;6664;52.514;13.440;2022-09-12T18:01:49;4.20;;;2.43;;
13197;SDS011;6664;52.514;13.440;2022-09-12T18:04:35;9.17;;;3.63;;
13197;SDS011;6664;52.514;13.440;2022-09-12T18:07:06;8.70;;;6.37;;
13197;SDS011;6664;52.514;13.440;2022-09-12T18:09:33;8.30;;;4.70;;
13197;SDS011;6664;52.514;13.440;2022-09-12T18:12:06;4.03;;;3.33;;
13197;SDS011;6664;52.514;13.440;2022-09-12T18:14:35;11.40;;;6.67;;
13197;SDS011;6664;52.514;13.440;2022-09-12T18:17:03;4.47;;;3.60;;
13197;SDS011;6664;52.514;13.440;2022-09-12T18:19:33;9.20;;;4.00;;